sensor_id;sensor_type;location;lat;lon;timestamp;pressure;altitude;pressure_sealevel;temperature;humidity
44481;BME280;30184;42.018;23.670;2023-03-23T00:01:13;91429.66;;;2.30;88.95
44481;BME280;30184;42.018;23.670;2023-03-23T00:03:46;91437.28;;;2.28;88.96
44481;BME280;30184;42.018;23.670;2023-03-23T00:06:15;91445.69;;;2.27;88.76
44481;BME280;30184;42.018;23.670;2023-03-23T00:08:46;91438.81;;;2.25;88.89
44481;BME280;30184;42.018;23.670;2023-03-23T00:11:18;91410.50;;;2.03;88.74
44481;BME280;30184;42.018;23.670;2023-03-23T00:13:50;91459.47;;;2.21;88.99
44481;BME280;30184;42.018;23.670;2023-03-23T00:16:19;91415.44;;;1.98;88.90
44481;BME280;30184;42.018;23.670;2023-03-23T00:18:58;91437.66;;;2.16;89.07
44481;BME280;30184;42.018;23.670;2023-03-23T00:21:28;91420.06;;;2.01;89.40
44481;BME280;30184;42.018;23.670;2023-03-23T00:24:03;91439.94;;;2.14;89.39
44481;BME280;30184;42.018;23.670;2023-03-23T00:26:35;91443.38;;;2.14;89.31
44481;BME280;30184;42.018;23.670;2023-03-23T00:29:08;91425.78;;;2.06;89.30
44481;BME280;30184;42.018;23.670;2023-03-23T00:31:41;91430.38;;;2.02;89.30
44481;BME280;30184;42.018;23.670;2023-03-23T00:34:14;91442.63;;;2.10;89.32
44481;BME280;30184;42.018;23.670;2023-03-23T00:36:46;91440.31;;;2.09;89.59
44481;BME280;30184;42.018;23.670;2023-03-23T00:39:14;91442.22;;;2.08;89.81
44481;BME280;30184;42.018;23.670;2023-03-23T00:41:44;91438.03;;;2.07;89.88
44481;BME280;30184;42.018;23.670;2023-03-23T00:44:13;91441.84;;;2.06;89.89
44481;BME280;30184;42.018;23.670;2023-03-23T00:46:44;91258.09;;;0.67;89.56
44481;BME280;30184;42.018;23.670;2023-03-23T00:49:13;91443.75;;;2.06;89.48
44481;BME280;30184;42.018;23.670;2023-03-23T00:51:41;91462.47;;;1.92;89.51
44481;BME280;30184;42.018;23.670;2023-03-23T00:54:10;91452.56;;;2.03;89.58
44481;BME280;30184;42.018;23.670;2023-03-23T00:56:38;91445.28;;;2.00;89.49
44481;BME280;30184;42.018;23.670;2023-03-23T00:59:08;91436.47;;;1.92;89.42
44481;BME280;30184;42.018;23.670;2023-03-23T01:01:36;91443.34;;;1.97;89.36
44481;BME280;30184;42.018;23.670;2023-03-23T01:04:04;91441.44;;;1.97;89.27
44481;BME280;30184;42.018;23.670;2023-03-23T01:06:37;91438.00;;;1.97;89.34
44481;BME280;30184;42.018;23.670;2023-03-23T01:09:06;91427.69;;;1.99;89.49
44481;BME280;30184;42.018;23.670;2023-03-23T01:11:35;91436.47;;;1.99;89.53
44481;BME280;30184;42.018;23.670;2023-03-23T01:14:05;91435.72;;;1.99;89.55
44481;BME280;30184;42.018;23.670;2023-03-23T01:16:34;91432.63;;;1.97;89.55
44481;BME280;30184;42.018;23.670;2023-03-23T01:19:02;91438.78;;;1.94;89.62
44481;BME280;30184;42.018;23.670;2023-03-23T01:21:30;91431.88;;;1.93;89.63
44481;BME280;30184;42.018;23.670;2023-03-23T01:23:58;91429.97;;;1.93;89.68
44481;BME280;30184;42.018;23.670;2023-03-23T01:26:27;91431.13;;;1.92;89.72
44481;BME280;30184;42.018;23.670;2023-03-23T01:28:55;91389.72;;;1.58;89.58
44481;BME280;30184;42.018;23.670;2023-03-23T01:31:24;91421.94;;;1.90;89.76
44481;BME280;30184;42.018;23.670;2023-03-23T01:33:54;91429.56;;;1.87;89.74
44481;BME280;30184;42.018;23.670;2023-03-23T01:36:24;91448.59;;;1.61;89.69
44481;BME280;30184;42.018;23.670;2023-03-23T01:39:00;91433.38;;;1.86;89.72
44481;BME280;30184;42.018;23.670;2023-03-23T01:41:30;91437.19;;;1.85;89.69
44481;BME280;30184;42.018;23.670;2023-03-23T01:44:02;91436.47;;;1.85;89.77
44481;BME280;30184;42.018;23.670;2023-03-23T01:46:44;91430.34;;;1.84;89.80
44481;BME280;30184;42.018;23.670;2023-03-23T01:49:16;91279.53;;;0.85;89.53
44481;BME280;30184;42.018;23.670;2023-03-23T01:51:48;91434.16;;;1.83;89.63
44481;BME280;30184;42.018;23.670;2023-03-23T01:54:19;91432.25;;;1.84;89.81
44481;BME280;30184;42.018;23.670;2023-03-23T01:56:53;91436.84;;;1.83;89.93
44481;BME280;30184;42.018;23.670;2023-03-23T01:59:23;91437.19;;;1.82;89.93
44481;BME280;30184;42.018;23.670;2023-03-23T02:02:14;91439.13;;;1.81;90.00
44481;BME280;30184;42.018;23.670;2023-03-23T02:04:45;91440.25;;;1.80;90.05
44481;BME280;30184;42.018;23.670;2023-03-23T02:07:15;91450.94;;;1.80;90.04
44481;BME280;30184;42.018;23.670;2023-03-23T02:09:44;91440.25;;;1.80;90.05
44481;BME280;30184;42.018;23.670;2023-03-23T02:12:12;91452.09;;;1.79;90.01
44481;BME280;30184;42.018;23.670;2023-03-23T02:14:40;91401.16;;;1.44;89.94
44481;BME280;30184;42.018;23.670;2023-03-23T02:17:12;91441.38;;;1.79;90.00
44481;BME280;30184;42.018;23.670;2023-03-23T02:25:57;91444.84;;;1.80;89.93
44481;BME280;30184;42.018;23.670;2023-03-23T02:28:41;91458.97;;;1.80;89.96
44481;BME280;30184;42.018;23.670;2023-03-23T02:31:23;91449.44;;;1.83;89.71
44481;BME280;30184;42.018;23.670;2023-03-23T02:33:59;91416.53;;;1.65;89.74
44481;BME280;30184;42.018;23.670;2023-03-23T02:36:30;91454.03;;;1.90;89.60
44481;BME280;30184;42.018;23.670;2023-03-23T02:39:05;91460.91;;;1.87;89.47
44481;BME280;30184;42.018;23.670;2023-03-23T02:41:39;91414.25;;;1.67;89.43
44481;BME280;30184;42.018;23.670;2023-03-23T02:44:09;91358.28;;;1.16;89.58
44481;BME280;30184;42.018;23.670;2023-03-23T02:46:39;91448.66;;;1.86;89.35
44481;BME280;30184;42.018;23.670;2023-03-23T02:49:11;91453.97;;;1.68;89.31
44481;BME280;30184;42.018;23.670;2023-03-23T02:51:43;91440.16;;;1.56;89.62
44481;BME280;30184;42.018;23.670;2023-03-23T02:54:13;91452.84;;;1.80;89.45
44481;BME280;30184;42.018;23.670;2023-03-23T02:56:43;91374.38;;;1.30;89.37
44481;BME280;30184;42.018;23.670;2023-03-23T02:59:20;91418.78;;;1.59;89.56
44481;BME280;30184;42.018;23.670;2023-03-23T03:02:01;91393.88;;;1.41;89.63
44481;BME280;30184;42.018;23.670;2023-03-23T03:04:33;91457.78;;;1.67;90.20
44481;BME280;30184;42.018;23.670;2023-03-23T03:07:15;91455.47;;;1.62;90.27
44481;BME280;30184;42.018;23.670;2023-03-23T03:09:49;91461.97;;;1.61;90.25
44481;BME280;30184;42.018;23.670;2023-03-23T03:12:25;91452.00;;;1.58;90.35
44481;BME280;30184;42.018;23.670;2023-03-23T03:15:06;91455.84;;;1.57;90.32
44481;BME280;30184;42.018;23.670;2023-03-23T03:17:41;91457.34;;;1.55;90.57
44481;BME280;30184;42.018;23.670;2023-03-23T03:20:14;91461.53;;;1.52;90.68
44481;BME280;30184;42.018;23.670;2023-03-23T03:22:44;91460.78;;;1.48;90.72
44481;BME280;30184;42.018;23.670;2023-03-23T03:25:15;91442.78;;;1.41;91.19
44481;BME280;30184;42.018;23.670;2023-03-23T03:27:47;91443.16;;;1.40;91.25
44481;BME280;30184;42.018;23.670;2023-03-23T03:30:30;91422.41;;;1.16;91.40
44481;BME280;30184;42.018;23.670;2023-03-23T03:33:01;91485.91;;;1.36;91.15
44481;BME280;30184;42.018;23.670;2023-03-23T03:35:36;91452.28;;;1.32;91.32
44481;BME280;30184;42.018;23.670;2023-03-23T03:38:06;91438.00;;;1.03;91.58
44481;BME280;30184;42.018;23.670;2023-03-23T03:40:35;91451.50;;;1.28;91.66
44481;BME280;30184;42.018;23.670;2023-03-23T03:43:04;91440.72;;;1.13;91.73
44481;BME280;30184;42.018;23.670;2023-03-23T03:45:33;91446.03;;;1.06;91.86
44481;BME280;30184;42.018;23.670;2023-03-23T03:48:02;91432.63;;;0.99;91.80
44481;BME280;30184;42.018;23.670;2023-03-23T03:50:31;91443.03;;;1.15;92.08
44481;BME280;30184;42.018;23.670;2023-03-23T03:53:00;91454.38;;;0.98;92.29
44481;BME280;30184;42.018;23.670;2023-03-23T03:55:29;91455.22;;;1.12;92.12
44481;BME280;30184;42.018;23.670;2023-03-23T03:58:04;91426.81;;;0.83;92.12
44481;BME280;30184;42.018;23.670;2023-03-23T04:00:59;91465.13;;;1.08;92.18
44481;BME280;30184;42.018;23.670;2023-03-23T04:03:32;91459.75;;;1.05;92.11
44481;BME280;30184;42.018;23.670;2023-03-23T04:06:20;91501.31;;;0.95;92.13
44481;BME280;30184;42.018;23.670;2023-03-23T04:08:50;91465.09;;;1.01;92.12
44481;BME280;30184;42.018;23.670;2023-03-23T04:11:18;91467.00;;;1.01;92.33
44481;BME280;30184;42.018;23.670;2023-03-23T04:13:46;91467.38;;;0.99;92.29
44481;BME280;30184;42.018;23.670;2023-03-23T04:16:20;91466.56;;;0.95;92.29
44481;BME280;30184;42.018;23.670;2023-03-23T04:18:49;91483.72;;;0.94;92.24
44481;BME280;30184;42.018;23.670;2023-03-23T04:21:18;91470.75;;;0.93;92.31
44481;BME280;30184;42.018;23.670;2023-03-23T04:23:50;91492.50;;;0.91;92.52
44481;BME280;30184;42.018;23.670;2023-03-23T04:26:20;91468.06;;;0.89;92.44
44481;BME280;30184;42.018;23.670;2023-03-23T04:28:50;91453.38;;;0.62;92.62
44481;BME280;30184;42.018;23.670;2023-03-23T04:31:33;91477.22;;;0.88;92.58
44481;BME280;30184;42.018;23.670;2023-03-23T04:34:20;91485.22;;;0.88;92.74
44481;BME280;30184;42.018;23.670;2023-03-23T04:36:50;91433.91;;;0.61;92.66
44481;BME280;30184;42.018;23.670;2023-03-23T04:39:25;91463.06;;;0.81;92.74
44481;BME280;30184;42.018;23.670;2023-03-23T04:41:57;91481.81;;;0.91;92.83
44481;BME280;30184;42.018;23.670;2023-03-23T04:44:46;91486.03;;;0.92;93.09
44481;BME280;30184;42.018;23.670;2023-03-23T04:47:24;91470.34;;;0.87;93.09
44481;BME280;30184;42.018;23.670;2023-03-23T04:49:58;91493.66;;;0.94;93.17
44481;BME280;30184;42.018;23.670;2023-03-23T04:52:33;91507.78;;;0.94;93.19
44481;BME280;30184;42.018;23.670;2023-03-23T04:55:08;91472.66;;;0.89;93.24
44481;BME280;30184;42.018;23.670;2023-03-23T04:57:38;91484.53;;;0.98;93.43
44481;BME280;30184;42.018;23.670;2023-03-23T05:00:25;91485.31;;;1.02;93.38
44481;BME280;30184;42.018;23.670;2023-03-23T05:02:55;91485.31;;;1.02;93.27
44481;BME280;30184;42.018;23.670;2023-03-23T05:05:27;91489.16;;;1.05;93.21
44481;BME280;30184;42.018;23.670;2023-03-23T05:07:59;91488.06;;;1.09;93.23
44481;BME280;30184;42.018;23.670;2023-03-23T05:10:31;91488.44;;;1.11;93.26
44481;BME280;30184;42.018;23.670;2023-03-23T05:13:05;91493.81;;;1.15;93.30
44481;BME280;30184;42.018;23.670;2023-03-23T05:15:33;91491.16;;;1.19;93.27
44481;BME280;30184;42.018;23.670;2023-03-23T05:18:03;91491.53;;;1.21;93.26
44481;BME280;30184;42.018;23.670;2023-03-23T05:20:33;91495.00;;;1.25;93.23
44481;BME280;30184;42.018;23.670;2023-03-23T05:23:09;91496.78;;;1.03;93.27
44481;BME280;30184;42.018;23.670;2023-03-23T05:25:41;91500.38;;;1.28;93.13
44481;BME280;30184;42.018;23.670;2023-03-23T05:28:16;91496.59;;;1.33;93.11
44481;BME280;30184;42.018;23.670;2023-03-23T05:30:48;91489.72;;;1.35;93.00
44481;BME280;30184;42.018;23.670;2023-03-23T05:33:17;91476.66;;;1.20;92.89
44481;BME280;30184;42.018;23.670;2023-03-23T05:35:53;91484.41;;;1.42;92.70
44481;BME280;30184;42.018;23.670;2023-03-23T05:38:27;91499.34;;;1.47;92.56
44481;BME280;30184;42.018;23.670;2023-03-23T05:40:59;91491.69;;;1.49;92.54
44481;BME280;30184;42.018;23.670;2023-03-23T05:43:34;91492.09;;;1.51;92.41
44481;BME280;30184;42.018;23.670;2023-03-23T05:46:23;91489.06;;;1.56;92.61
44481;BME280;30184;42.018;23.670;2023-03-23T05:48:53;91479.09;;;1.46;93.11
44481;BME280;30184;42.018;23.670;2023-03-23T05:51:28;91491.03;;;1.70;93.04
44481;BME280;30184;42.018;23.670;2023-03-23T05:53:57;91526.66;;;1.84;92.99
44481;BME280;30184;42.018;23.670;2023-03-23T05:56:26;91491.94;;;2.02;93.24
44481;BME280;30184;42.018;23.670;2023-03-23T05:59:14;91491.59;;;2.21;93.03
44481;BME280;30184;42.018;23.670;2023-03-23T06:01:45;91497.34;;;2.41;92.94
44481;BME280;30184;42.018;23.670;2023-03-23T06:04:13;91486.69;;;2.62;92.93
44481;BME280;30184;42.018;23.670;2023-03-23T06:06:55;91508.91;;;2.77;92.79
44481;BME280;30184;42.018;23.670;2023-03-23T06:09:23;91495.88;;;3.08;92.56
44481;BME280;30184;42.018;23.670;2023-03-23T06:12:16;91445.72;;;3.05;91.92
44481;BME280;30184;42.018;23.670;2023-03-23T06:15:08;91497.34;;;3.55;91.22
44481;BME280;30184;42.018;23.670;2023-03-23T06:18:01;91493.44;;;3.77;90.46
44481;BME280;30184;42.018;23.670;2023-03-23T06:20:36;91479.94;;;3.98;89.84
44481;BME280;30184;42.018;23.670;2023-03-23T06:23:20;91485.97;;;4.24;89.24
44481;BME280;30184;42.018;23.670;2023-03-23T06:25:48;91474.41;;;4.30;88.16
44481;BME280;30184;42.018;23.670;2023-03-23T06:28:18;91454.78;;;4.37;88.04
44481;BME280;30184;42.018;23.670;2023-03-23T06:30:48;91474.50;;;4.78;87.44
44481;BME280;30184;42.018;23.670;2023-03-23T06:33:16;91470.91;;;4.92;87.21
44481;BME280;30184;42.018;23.670;2023-03-23T06:36:10;91479.91;;;5.19;84.26
44481;BME280;30184;42.018;23.670;2023-03-23T06:38:47;91466.78;;;5.29;82.01
44481;BME280;30184;42.018;23.670;2023-03-23T06:41:19;91475.88;;;5.45;81.08
44481;BME280;30184;42.018;23.670;2023-03-23T06:43:49;91477.25;;;5.57;79.74
44481;BME280;30184;42.018;23.670;2023-03-23T06:46:23;91481.78;;;5.67;78.57
44481;BME280;30184;42.018;23.670;2023-03-23T06:49:15;91446.44;;;5.65;78.17
44481;BME280;30184;42.018;23.670;2023-03-23T06:52:04;91473.59;;;6.12;77.77
44481;BME280;30184;42.018;23.670;2023-03-23T06:54:33;91487.66;;;6.30;77.36
44481;BME280;30184;42.018;23.670;2023-03-23T06:57:03;91376.63;;;5.81;75.99
44481;BME280;30184;42.018;23.670;2023-03-23T06:59:32;91459.63;;;6.51;75.72
44481;BME280;30184;42.018;23.670;2023-03-23T07:02:02;91476.56;;;6.78;74.77
44481;BME280;30184;42.018;23.670;2023-03-23T07:04:32;91475.63;;;6.92;73.96
44481;BME280;30184;42.018;23.670;2023-03-23T07:07:09;91483.81;;;7.11;73.80
44481;BME280;30184;42.018;23.670;2023-03-23T07:09:47;91466.56;;;7.29;73.95
44481;BME280;30184;42.018;23.670;2023-03-23T07:12:19;91246.44;;;5.95;72.92
44481;BME280;30184;42.018;23.670;2023-03-23T07:14:50;91470.84;;;7.69;72.27
44481;BME280;30184;42.018;23.670;2023-03-23T07:17:18;91429.44;;;7.56;71.59
44481;BME280;30184;42.018;23.670;2023-03-23T07:20:10;91473.34;;;8.03;71.12
44481;BME280;30184;42.018;23.670;2023-03-23T07:22:39;91461.25;;;8.08;70.70
44481;BME280;30184;42.018;23.670;2023-03-23T07:25:18;91473.56;;;8.32;70.27
44481;BME280;30184;42.018;23.670;2023-03-23T07:27:50;91466.69;;;8.47;70.15
44481;BME280;30184;42.018;23.670;2023-03-23T07:30:20;91462.25;;;8.73;69.82
44481;BME280;30184;42.018;23.670;2023-03-23T07:32:48;91469.16;;;8.94;69.41
44481;BME280;30184;42.018;23.670;2023-03-23T07:35:19;91473.81;;;9.10;68.92
44481;BME280;30184;42.018;23.670;2023-03-23T07:37:56;91469.50;;;9.28;68.44
44481;BME280;30184;42.018;23.670;2023-03-23T07:40:24;91463.41;;;9.41;67.72
44481;BME280;30184;42.018;23.670;2023-03-23T07:42:59;91385.59;;;8.96;67.39
44481;BME280;30184;42.018;23.670;2023-03-23T07:45:51;91331.75;;;8.69;65.80
44481;BME280;30184;42.018;23.670;2023-03-23T07:48:23;91427.09;;;9.38;65.51
44481;BME280;30184;42.018;23.670;2023-03-23T07:50:52;91469.47;;;9.77;63.48
44481;BME280;30184;42.018;23.670;2023-03-23T07:53:21;91467.53;;;10.06;63.47
44481;BME280;30184;42.018;23.670;2023-03-23T07:56:03;91460.47;;;10.25;62.38
44481;BME280;30184;42.018;23.670;2023-03-23T07:58:57;91458.56;;;10.38;61.71
44481;BME280;30184;42.018;23.670;2023-03-23T08:01:27;91435.78;;;10.36;61.21
44481;BME280;30184;42.018;23.670;2023-03-23T08:04:18;91444.00;;;10.74;58.42
44481;BME280;30184;42.018;23.670;2023-03-23T08:07:19;91447.78;;;10.89;57.67
44481;BME280;30184;42.018;23.670;2023-03-23T08:09:57;91451.47;;;11.08;55.21
44481;BME280;30184;42.018;23.670;2023-03-23T08:12:29;91444.84;;;11.21;55.34
44481;BME280;30184;42.018;23.670;2023-03-23T08:15:15;91437.53;;;11.31;54.13
44481;BME280;30184;42.018;23.670;2023-03-23T08:18:04;91442.13;;;11.47;54.99
44481;BME280;30184;42.018;23.670;2023-03-23T08:21:07;91441.97;;;11.50;54.84
44481;BME280;30184;42.018;23.670;2023-03-23T08:23:56;91437.19;;;11.67;53.57
44481;BME280;30184;42.018;23.670;2023-03-23T08:26:42;91421.56;;;11.93;52.33
44481;BME280;30184;42.018;23.670;2023-03-23T08:29:23;91429.56;;;12.31;52.77
44481;BME280;30184;42.018;23.670;2023-03-23T08:31:51;91428.34;;;12.54;51.82
44481;BME280;30184;42.018;23.670;2023-03-23T08:34:27;91435.81;;;12.62;50.98
44481;BME280;30184;42.018;23.670;2023-03-23T08:37:09;91421.09;;;12.82;50.71
44481;BME280;30184;42.018;23.670;2023-03-23T08:39:57;91416.88;;;12.90;49.68
44481;BME280;30184;42.018;23.670;2023-03-23T08:42:48;91410.31;;;12.69;49.59
44481;BME280;30184;42.018;23.670;2023-03-23T08:45:35;91413.66;;;13.13;49.58
44481;BME280;30184;42.018;23.670;2023-03-23T08:48:35;91403.91;;;13.25;48.74
44481;BME280;30184;42.018;23.670;2023-03-23T08:51:23;91377.38;;;13.25;48.62
44481;BME280;30184;42.018;23.670;2023-03-23T08:54:20;91397.13;;;13.48;47.72
44481;BME280;30184;42.018;23.670;2023-03-23T08:57:08;91393.53;;;13.60;47.62
44481;BME280;30184;42.018;23.670;2023-03-23T08:59:57;91390.66;;;13.72;47.48
44481;BME280;30184;42.018;23.670;2023-03-23T09:03:01;91391.41;;;13.82;47.10
44481;BME280;30184;42.018;23.670;2023-03-23T09:05:41;91330.81;;;13.51;46.46
44481;BME280;30184;42.018;23.670;2023-03-23T09:08:30;91398.13;;;13.99;45.43
44481;BME280;30184;42.018;23.670;2023-03-23T09:10:58;91380.06;;;13.93;45.01
44481;BME280;30184;42.018;23.670;2023-03-23T09:13:27;91381.13;;;13.95;44.56
44481;BME280;30184;42.018;23.670;2023-03-23T09:15:54;91388.88;;;14.15;45.71
44481;BME280;30184;42.018;23.670;2023-03-23T09:18:22;91382.31;;;14.31;44.86
44481;BME280;30184;42.018;23.670;2023-03-23T09:20:53;91388.09;;;14.33;45.73
44481;BME280;30184;42.018;23.670;2023-03-23T09:23:21;91380.22;;;14.44;45.06
44481;BME280;30184;42.018;23.670;2023-03-23T09:25:50;91381.25;;;14.37;44.98
44481;BME280;30184;42.018;23.670;2023-03-23T09:28:19;91378.25;;;14.35;45.60
44481;BME280;30184;42.018;23.670;2023-03-23T09:30:47;91375.53;;;14.26;44.96
44481;BME280;30184;42.018;23.670;2023-03-23T09:33:16;91369.59;;;14.28;44.84
44481;BME280;30184;42.018;23.670;2023-03-23T09:35:44;91370.97;;;14.23;44.53
44481;BME280;30184;42.018;23.670;2023-03-23T09:38:12;91306.88;;;13.73;44.26
44481;BME280;30184;42.018;23.670;2023-03-23T09:40:45;91371.41;;;14.49;44.41
44481;BME280;30184;42.018;23.670;2023-03-23T09:43:32;91347.72;;;14.37;44.68
44481;BME280;30184;42.018;23.670;2023-03-23T09:46:14;91351.38;;;14.52;43.85
44481;BME280;30184;42.018;23.670;2023-03-23T09:48:49;91368.03;;;14.72;44.09
44481;BME280;30184;42.018;23.670;2023-03-23T09:51:27;91386.53;;;14.68;44.01
44481;BME280;30184;42.018;23.670;2023-03-23T09:54:01;91358.28;;;14.80;44.41
44481;BME280;30184;42.018;23.670;2023-03-23T09:56:32;91367.25;;;14.81;44.01
44481;BME280;30184;42.018;23.670;2023-03-23T09:59:05;91354.78;;;14.80;45.31
44481;BME280;30184;42.018;23.670;2023-03-23T10:01:39;91372.78;;;14.96;44.46
44481;BME280;30184;42.018;23.670;2023-03-23T10:04:14;91353.50;;;14.99;43.43
44481;BME280;30184;42.018;23.670;2023-03-23T10:06:45;91353.31;;;15.03;43.50
44481;BME280;30184;42.018;23.670;2023-03-23T10:09:16;91335.63;;;14.89;43.48
44481;BME280;30184;42.018;23.670;2023-03-23T10:11:56;91355.47;;;14.99;42.63
44481;BME280;30184;42.018;23.670;2023-03-23T10:14:38;91330.25;;;15.04;42.99
44481;BME280;30184;42.018;23.670;2023-03-23T10:17:14;91346.41;;;15.25;42.46
44481;BME280;30184;42.018;23.670;2023-03-23T10:19:47;91344.22;;;15.29;41.75
44481;BME280;30184;42.018;23.670;2023-03-23T10:22:20;91340.09;;;15.10;41.33
44481;BME280;30184;42.018;23.670;2023-03-23T10:24:55;91345.47;;;15.28;41.31
44481;BME280;30184;42.018;23.670;2023-03-23T10:27:28;91328.53;;;15.39;41.76
44481;BME280;30184;42.018;23.670;2023-03-23T10:30:13;91331.41;;;15.45;40.71
44481;BME280;30184;42.018;23.670;2023-03-23T10:32:44;91359.91;;;15.53;42.00
44481;BME280;30184;42.018;23.670;2023-03-23T10:35:18;91326.00;;;15.59;41.99
44481;BME280;30184;42.018;23.670;2023-03-23T10:37:50;91318.00;;;15.56;41.31
44481;BME280;30184;42.018;23.670;2023-03-23T10:40:23;91322.50;;;15.59;41.59
44481;BME280;30184;42.018;23.670;2023-03-23T10:42:53;91254.91;;;15.12;42.37
44481;BME280;30184;42.018;23.670;2023-03-23T10:45:25;91254.13;;;15.11;41.46
44481;BME280;30184;42.018;23.670;2023-03-23T10:47:59;91322.16;;;15.42;41.99
44481;BME280;30184;42.018;23.670;2023-03-23T10:50:35;91298.63;;;15.12;41.97
44481;BME280;30184;42.018;23.670;2023-03-23T10:53:12;91310.97;;;15.31;43.09
44481;BME280;30184;42.018;23.670;2023-03-23T10:55:43;91314.97;;;15.54;43.09
44481;BME280;30184;42.018;23.670;2023-03-23T10:58:13;91305.56;;;15.46;41.75
44481;BME280;30184;42.018;23.670;2023-03-23T11:00:50;91305.19;;;15.62;42.65
44481;BME280;30184;42.018;23.670;2023-03-23T11:03:25;91213.91;;;15.12;41.27
44481;BME280;30184;42.018;23.670;2023-03-23T11:05:56;91318.03;;;16.09;41.45
44481;BME280;30184;42.018;23.670;2023-03-23T11:08:27;91316.19;;;16.30;40.76
44481;BME280;30184;42.018;23.670;2023-03-23T11:11:07;91305.22;;;16.45;39.97
44481;BME280;30184;42.018;23.670;2023-03-23T11:13:39;91302.22;;;16.57;39.98
44481;BME280;30184;42.018;23.670;2023-03-23T11:16:22;91305.03;;;16.77;39.82
44481;BME280;30184;42.018;23.670;2023-03-23T11:18:50;91307.19;;;16.88;38.94
44481;BME280;30184;42.018;23.670;2023-03-23T11:21:21;91306.19;;;16.86;38.92
44481;BME280;30184;42.018;23.670;2023-03-23T11:23:51;91294.63;;;16.82;39.62
44481;BME280;30184;42.018;23.670;2023-03-23T11:26:22;91299.66;;;16.83;39.67
44481;BME280;30184;42.018;23.670;2023-03-23T11:28:55;91302.69;;;16.70;40.01
44481;BME280;30184;42.018;23.670;2023-03-23T11:31:28;91306.72;;;16.90;39.74
44481;BME280;30184;42.018;23.670;2023-03-23T11:33:58;91312.94;;;17.05;39.32
44481;BME280;30184;42.018;23.670;2023-03-23T11:36:33;91294.59;;;17.11;38.95
44481;BME280;30184;42.018;23.670;2023-03-23T11:39:03;91286.00;;;17.03;39.18
44481;BME280;30184;42.018;23.670;2023-03-23T11:41:34;91299.38;;;17.16;38.04
44481;BME280;30184;42.018;23.670;2023-03-23T11:44:09;91288.19;;;16.99;38.28
44481;BME280;30184;42.018;23.670;2023-03-23T11:46:47;91297.28;;;16.91;38.49
44481;BME280;30184;42.018;23.670;2023-03-23T11:49:25;91276.72;;;16.66;38.13
44481;BME280;30184;42.018;23.670;2023-03-23T11:52:02;91296.63;;;16.52;37.95
44481;BME280;30184;42.018;23.670;2023-03-23T11:54:35;91296.53;;;16.46;38.58
44481;BME280;30184;42.018;23.670;2023-03-23T11:57:07;91292.84;;;16.49;38.82
44481;BME280;30184;42.018;23.670;2023-03-23T11:59:37;91289.16;;;16.37;38.35
44481;BME280;30184;42.018;23.670;2023-03-23T12:02:35;91290.22;;;16.40;38.38
44481;BME280;30184;42.018;23.670;2023-03-23T12:05:30;91273.69;;;16.34;38.66
44481;BME280;30184;42.018;23.670;2023-03-23T12:08:09;91299.25;;;16.31;38.60
44481;BME280;30184;42.018;23.670;2023-03-23T12:10:45;91291.53;;;16.30;38.65
44481;BME280;30184;42.018;23.670;2023-03-23T12:13:26;91283.59;;;16.32;38.41
44481;BME280;30184;42.018;23.670;2023-03-23T12:16:05;91243.00;;;16.01;37.89
44481;BME280;30184;42.018;23.670;2023-03-23T12:18:45;91302.38;;;16.10;38.21
44481;BME280;30184;42.018;23.670;2023-03-23T12:21:21;91158.16;;;15.18;38.38
44481;BME280;30184;42.018;23.670;2023-03-23T12:23:59;91272.94;;;16.19;38.67
44481;BME280;30184;42.018;23.670;2023-03-23T12:26:31;91257.06;;;16.09;38.47
44481;BME280;30184;42.018;23.670;2023-03-23T12:29:16;91265.25;;;16.23;37.88
44481;BME280;30184;42.018;23.670;2023-03-23T12:31:52;91272.56;;;16.12;39.19
44481;BME280;30184;42.018;23.670;2023-03-23T12:34:35;91179.00;;;15.54;38.10
44481;BME280;30184;42.018;23.670;2023-03-23T12:37:20;91247.53;;;16.19;38.09
44481;BME280;30184;42.018;23.670;2023-03-23T12:40:06;91277.38;;;16.46;38.05
44481;BME280;30184;42.018;23.670;2023-03-23T12:42:43;91261.78;;;16.67;37.86
44481;BME280;30184;42.018;23.670;2023-03-23T12:45:22;91261.75;;;16.82;37.43
44481;BME280;30184;42.018;23.670;2023-03-23T12:47:58;91262.88;;;16.90;37.56
44481;BME280;30184;42.018;23.670;2023-03-23T12:50:35;91235.13;;;16.82;38.19
44481;BME280;30184;42.018;23.670;2023-03-23T12:53:09;91234.06;;;16.79;37.93
44481;BME280;30184;42.018;23.670;2023-03-23T12:55:42;91278.38;;;16.93;38.59
44481;BME280;30184;42.018;23.670;2023-03-23T12:58:15;91242.56;;;16.82;37.67
44481;BME280;30184;42.018;23.670;2023-03-23T13:00:55;91261.19;;;16.77;37.71
44481;BME280;30184;42.018;23.670;2023-03-23T13:03:27;91251.59;;;16.67;37.82
44481;BME280;30184;42.018;23.670;2023-03-23T13:06:04;91190.50;;;16.17;37.95
44481;BME280;30184;42.018;23.670;2023-03-23T13:08:38;91264.03;;;16.54;38.59
44481;BME280;30184;42.018;23.670;2023-03-23T13:11:12;91254.22;;;16.47;38.07
44481;BME280;30184;42.018;23.670;2023-03-23T13:13:45;91239.66;;;16.41;38.58
44481;BME280;30184;42.018;23.670;2023-03-23T13:16:24;91254.41;;;16.14;38.44
44481;BME280;30184;42.018;23.670;2023-03-23T13:19:03;91249.88;;;15.96;39.23
44481;BME280;30184;42.018;23.670;2023-03-23T13:21:40;91258.03;;;15.67;39.36
44481;BME280;30184;42.018;23.670;2023-03-23T13:24:13;91255.25;;;15.52;39.83
44481;BME280;30184;42.018;23.670;2023-03-23T13:26:43;91253.97;;;15.39;40.26
44481;BME280;30184;42.018;23.670;2023-03-23T13:29:16;91267.69;;;15.29;40.25
44481;BME280;30184;42.018;23.670;2023-03-23T13:31:47;91257.41;;;15.24;40.49
44481;BME280;30184;42.018;23.670;2023-03-23T13:34:18;91263.47;;;15.28;40.19
44481;BME280;30184;42.018;23.670;2023-03-23T13:36:55;91265.16;;;15.26;40.10
44481;BME280;30184;42.018;23.670;2023-03-23T13:39:25;91262.28;;;15.20;40.27
44481;BME280;30184;42.018;23.670;2023-03-23T13:42:04;91274.03;;;15.12;40.27